createdAt,value
2023-11-24T00:00:55.421Z,7.62
2023-11-24T00:01:55.485Z,7.24
2023-11-24T00:02:55.444Z,7.49
2023-11-24T00:03:55.533Z,6.96
2023-11-24T00:04:56.483Z,8.71
2023-11-24T00:05:55.532Z,7.61
2023-11-24T00:06:55.584Z,7.32
2023-11-24T00:07:55.498Z,7.64
2023-11-24T00:08:55.481Z,7.99
2023-11-24T00:09:55.486Z,8.15
2023-11-24T00:10:55.460Z,7.97
2023-11-24T00:12:05.538Z,7.63
2023-11-24T00:12:55.513Z,7.58
2023-11-24T00:13:55.450Z,7.62
2023-11-24T00:14:55.432Z,6.79
2023-11-24T00:15:55.552Z,8.28
2023-11-24T00:16:55.505Z,7.91
2023-11-24T00:17:58.080Z,7.64
2023-11-24T00:18:55.446Z,7.50
2023-11-24T00:19:55.385Z,8.58
2023-11-24T00:20:55.377Z,8.28
2023-11-24T00:21:55.419Z,9.03
2023-11-24T00:22:55.444Z,9.06
2023-11-24T00:23:55.377Z,8.82
2023-11-24T00:24:55.418Z,8.92
2023-11-24T00:25:55.325Z,8.70
2023-11-24T00:26:55.373Z,8.36
2023-11-24T00:27:55.346Z,9.72
2023-11-24T00:28:55.316Z,9.48
2023-11-24T00:29:55.297Z,8.84
2023-11-24T00:30:55.335Z,9.30
2023-11-24T00:31:55.294Z,9.22
2023-11-24T00:32:55.324Z,8.28
2023-11-24T00:33:55.378Z,9.60
2023-11-24T00:34:55.262Z,10.56
2023-11-24T00:35:55.247Z,10.20
2023-11-24T00:36:55.255Z,9.38
2023-11-24T00:37:55.243Z,11.29
2023-11-24T00:38:55.208Z,10.93
2023-11-24T00:39:55.216Z,10.24
2023-11-24T00:40:55.198Z,10.02
2023-11-24T00:41:55.212Z,9.35
2023-11-24T00:42:55.234Z,9.92
2023-11-24T00:43:55.184Z,10.08
2023-11-24T00:44:55.177Z,10.04
2023-11-24T00:45:55.298Z,9.62
2023-11-24T00:46:55.218Z,9.62
2023-11-24T00:47:55.148Z,8.73
2023-11-24T00:48:55.213Z,8.90
2023-11-24T00:49:55.114Z,9.44
2023-11-24T00:50:55.126Z,9.79
2023-11-24T00:51:55.219Z,9.47
2023-11-24T00:52:58.913Z,10.21
2023-11-24T00:53:55.091Z,10.00
2023-11-24T00:54:55.147Z,9.52
2023-11-24T00:55:55.065Z,10.04
2023-11-24T00:56:55.069Z,10.80
2023-11-24T00:57:55.071Z,9.81
2023-11-24T00:58:55.074Z,10.10
2023-11-24T00:59:55.049Z,9.62
2023-11-24T01:00:55.059Z,9.58
2023-11-24T01:01:55.049Z,8.96
2023-11-24T01:02:55.142Z,8.03
2023-11-24T01:03:55.105Z,9.65
2023-11-24T01:04:55.086Z,8.79
2023-11-24T01:05:55.024Z,8.80
2023-11-24T01:06:54.998Z,9.53
2023-11-24T01:07:54.968Z,7.68
2023-11-24T01:08:54.977Z,8.88
2023-11-24T01:09:55.070Z,8.84
2023-11-24T01:10:54.951Z,8.51
2023-11-24T01:11:54.925Z,7.90
2023-11-24T01:12:54.985Z,7.85
2023-11-24T01:13:54.908Z,8.72
2023-11-24T01:14:54.919Z,7.83
2023-11-24T01:15:54.914Z,7.86
2023-11-24T01:16:54.915Z,8.97
2023-11-24T01:17:54.882Z,8.58
2023-11-24T01:18:54.892Z,9.16
2023-11-24T01:19:54.844Z,11.05
2023-11-24T01:20:54.863Z,11.47
2023-11-24T01:21:54.883Z,10.94
2023-11-24T01:22:54.831Z,11.06
2023-11-24T01:23:54.835Z,11.98
2023-11-24T01:24:54.892Z,12.88
2023-11-24T01:25:54.815Z,14.48
2023-11-24T01:26:54.794Z,13.16
2023-11-24T01:27:54.857Z,12.47
2023-11-24T01:28:54.820Z,11.63
2023-11-24T01:29:54.778Z,11.42
2023-11-24T01:30:57.876Z,10.89
2023-11-24T01:31:54.759Z,10.10
2023-11-24T01:32:54.764Z,11.31
2023-11-24T01:33:54.818Z,10.89
2023-11-24T01:34:54.752Z,11.77
2023-11-24T01:35:54.725Z,10.55
2023-11-24T01:36:54.821Z,9.99
2023-11-24T01:37:54.731Z,10.21
2023-11-24T01:38:54.713Z,10.67
2023-11-24T01:39:54.740Z,11.53
2023-11-24T01:40:54.696Z,10.78
2023-11-24T01:41:54.683Z,12.73
2023-11-24T01:42:54.693Z,11.74
2023-11-24T01:43:54.681Z,13.14
2023-11-24T01:44:54.648Z,12.92
2023-11-24T01:45:54.705Z,12.59
2023-11-24T01:46:54.644Z,11.81
2023-11-24T01:47:54.620Z,14.27
2023-11-24T01:48:54.616Z,14.31
2023-11-24T01:49:54.618Z,13.05
2023-11-24T01:50:54.622Z,14.01
2023-11-24T01:51:54.618Z,14.07
2023-11-24T01:52:54.673Z,12.43
2023-11-24T01:53:54.564Z,11.50
2023-11-24T01:54:54.578Z,12.10
2023-11-24T01:55:54.574Z,11.06
2023-11-24T01:56:54.546Z,11.81
2023-11-24T01:57:54.553Z,11.44
2023-11-24T01:58:54.548Z,11.68
2023-11-24T01:59:54.510Z,12.06
2023-11-24T02:00:54.507Z,12.78
2023-11-24T02:01:54.530Z,12.08
2023-11-24T02:02:54.546Z,11.58
2023-11-24T02:03:54.561Z,12.94
2023-11-24T02:04:54.506Z,13.42
2023-11-24T02:05:54.449Z,12.69
2023-11-24T02:06:54.506Z,13.66
2023-11-24T02:07:54.461Z,14.55
2023-11-24T02:08:54.447Z,15.46
2023-11-24T02:10:04.648Z,14.57
2023-11-24T02:10:54.420Z,12.12
2023-11-24T02:11:54.392Z,11.85
2023-11-24T02:12:54.489Z,13.44
2023-11-24T02:13:54.387Z,13.00
2023-11-24T02:14:54.382Z,12.59
2023-11-24T02:15:57.362Z,14.46
2023-11-24T02:16:54.398Z,13.16
2023-11-24T02:17:54.404Z,13.55
2023-11-24T02:18:54.380Z,14.12
2023-11-24T02:19:54.381Z,12.10
2023-11-24T02:20:54.342Z,11.89
2023-11-24T02:21:54.331Z,13.54
2023-11-24T02:22:54.337Z,13.10
2023-11-24T02:23:54.318Z,12.86
2023-11-24T02:24:54.326Z,12.59
2023-11-24T02:25:54.285Z,13.88
2023-11-24T02:26:54.291Z,13.22
2023-11-24T02:27:54.292Z,12.52
2023-11-24T02:28:54.270Z,12.49
2023-11-24T02:29:54.272Z,13.42
2023-11-24T02:30:54.387Z,14.56
2023-11-24T02:31:54.219Z,14.07
2023-11-24T02:32:54.276Z,13.31
2023-11-24T02:33:54.265Z,12.50
2023-11-24T02:34:54.244Z,12.79
2023-11-24T02:35:54.201Z,12.98
2023-11-24T02:36:54.220Z,13.40
2023-11-24T02:37:54.169Z,12.80
2023-11-24T02:38:54.181Z,13.58
2023-11-24T02:39:54.181Z,13.44
2023-11-24T02:40:54.152Z,14.72
2023-11-24T02:41:54.157Z,14.61
2023-11-24T02:42:54.140Z,14.15
2023-11-24T02:43:54.220Z,13.08
2023-11-24T02:44:54.142Z,14.34
2023-11-24T02:45:54.140Z,13.96
2023-11-24T02:46:54.102Z,13.87
2023-11-24T02:47:54.128Z,14.00
2023-11-24T02:48:54.309Z,14.02
2023-11-24T02:49:54.068Z,14.04
2023-11-24T02:51:15.117Z,14.35
2023-11-24T02:51:54.057Z,13.97
2023-11-24T02:52:54.049Z,13.53
2023-11-24T02:53:54.041Z,14.07
2023-11-24T02:54:54.147Z,12.96
2023-11-24T02:55:54.022Z,13.29
2023-11-24T02:56:54.017Z,12.20
2023-11-24T02:57:54.010Z,12.21
2023-11-24T02:58:54.022Z,12.80
2023-11-24T02:59:53.999Z,12.27
2023-11-24T03:00:54.017Z,13.05
2023-11-24T03:01:54.053Z,12.24
2023-11-24T03:02:53.964Z,13.14
2023-11-24T03:03:54.025Z,11.93
2023-11-24T03:04:53.972Z,11.40
2023-11-24T03:05:53.941Z,11.09
2023-11-24T03:06:53.981Z,11.17
2023-11-24T03:07:53.929Z,12.12
2023-11-24T03:08:53.925Z,10.39
2023-11-24T03:09:53.911Z,10.86
2023-11-24T03:10:53.892Z,10.53
2023-11-24T03:11:58.942Z,11.07
2023-11-24T03:12:53.933Z,10.29
2023-11-24T03:13:53.860Z,10.89
2023-11-24T03:14:53.879Z,11.46
2023-11-24T03:15:53.892Z,10.23
2023-11-24T03:16:53.886Z,9.98
2023-11-24T03:17:53.870Z,10.17
2023-11-24T03:18:53.862Z,10.11
2023-11-24T03:19:53.809Z,10.04
2023-11-24T03:20:53.802Z,9.30
2023-11-24T03:21:53.840Z,10.45
2023-11-24T03:22:53.792Z,9.22
2023-11-24T03:23:53.767Z,9.09
2023-11-24T03:24:53.785Z,9.15
2023-11-24T03:25:53.784Z,10.45
2023-11-24T03:26:53.846Z,9.74
2023-11-24T03:27:53.921Z,10.67
2023-11-24T03:28:53.937Z,9.61
2023-11-24T03:29:54.042Z,9.20
2023-11-24T03:30:54.102Z,10.37
2023-11-24T03:31:54.085Z,10.11
2023-11-24T03:32:54.145Z,9.78
2023-11-24T03:33:54.222Z,10.62
2023-11-24T03:34:54.245Z,9.87
2023-11-24T03:35:54.283Z,10.16
2023-11-24T03:36:54.347Z,10.53
2023-11-24T03:37:54.393Z,9.65
2023-11-24T03:38:54.443Z,9.05
2023-11-24T03:39:54.563Z,9.57
2023-11-24T03:40:54.531Z,8.95
2023-11-24T03:41:54.575Z,9.15
2023-11-24T03:42:54.735Z,9.28
2023-11-24T03:43:54.701Z,10.43
2023-11-24T03:44:54.756Z,9.54
2023-11-24T03:45:54.812Z,11.26
2023-11-24T03:46:54.857Z,10.83
2023-11-24T03:47:54.901Z,10.61
2023-11-24T03:48:54.990Z,10.47
2023-11-24T03:49:54.980Z,10.60
2023-11-24T03:50:55.058Z,10.97
2023-11-24T03:51:55.142Z,9.69
2023-11-24T03:52:55.210Z,10.14
2023-11-24T03:53:55.198Z,10.95
2023-11-24T03:54:55.289Z,9.86
2023-11-24T03:55:55.282Z,11.35
2023-11-24T03:56:55.341Z,9.52
2023-11-24T03:57:55.428Z,9.23
2023-11-24T03:58:55.459Z,9.56
2023-11-24T03:59:55.480Z,8.95
2023-11-24T04:00:55.642Z,9.33
2023-11-24T04:01:55.677Z,10.82
2023-11-24T04:02:55.641Z,9.98
2023-11-24T04:03:55.834Z,10.23
2023-11-24T04:04:55.756Z,10.14
2023-11-24T04:05:55.794Z,10.94
2023-11-24T04:06:55.868Z,9.15
2023-11-24T04:07:55.885Z,10.54
2023-11-24T04:09:01.012Z,9.18
2023-11-24T04:09:55.974Z,10.58
2023-11-24T04:10:58.965Z,10.42
2023-11-24T04:11:55.941Z,10.88
2023-11-24T04:12:55.926Z,10.15
2023-11-24T04:13:55.898Z,10.08
2023-11-24T04:14:55.893Z,9.65
2023-11-24T04:15:55.956Z,11.85
2023-11-24T04:16:56.992Z,10.45
2023-11-24T04:17:55.984Z,10.40
2023-11-24T04:18:55.891Z,10.84
2023-11-24T04:19:55.873Z,10.55
2023-11-24T04:20:55.835Z,10.62
2023-11-24T04:21:55.864Z,10.39
2023-11-24T04:22:55.824Z,11.41
2023-11-24T04:23:55.827Z,10.38
2023-11-24T04:24:55.841Z,10.89
2023-11-24T04:25:55.810Z,9.59
2023-11-24T04:26:55.789Z,9.97
2023-11-24T04:27:55.808Z,9.47
2023-11-24T04:28:55.745Z,10.12
2023-11-24T04:29:55.756Z,9.70
2023-11-24T04:30:55.794Z,8.68
2023-11-24T04:31:55.739Z,9.51
2023-11-24T04:32:55.785Z,9.04
2023-11-24T04:33:55.800Z,9.51
2023-11-24T04:34:55.714Z,10.41
2023-11-24T04:35:55.708Z,9.64
2023-11-24T04:36:55.754Z,10.60
2023-11-24T04:37:55.702Z,10.17
2023-11-24T04:38:55.694Z,9.89
2023-11-24T04:39:55.724Z,10.54
2023-11-24T04:40:55.675Z,10.25
2023-11-24T04:41:55.708Z,9.44
2023-11-24T04:42:55.663Z,9.66
2023-11-24T04:43:55.635Z,9.51
2023-11-24T04:44:55.618Z,9.23
2023-11-24T04:45:55.708Z,9.47
2023-11-24T04:46:55.616Z,9.40
2023-11-24T04:47:55.661Z,9.49
2023-11-24T04:48:55.586Z,10.63
2023-11-24T04:49:55.611Z,9.99
2023-11-24T04:50:55.574Z,8.75
2023-11-24T04:51:55.581Z,9.36
2023-11-24T04:52:55.547Z,8.73
2023-11-24T04:53:55.580Z,9.91
2023-11-24T04:54:55.576Z,10.00
2023-11-24T04:55:55.539Z,8.82
2023-11-24T04:56:55.526Z,9.51
2023-11-24T04:57:55.544Z,9.11
2023-11-24T04:58:55.492Z,9.71
2023-11-24T04:59:55.491Z,8.75
2023-11-24T05:00:55.532Z,9.99
2023-11-24T05:01:55.592Z,9.38
2023-11-24T05:02:55.470Z,9.07
2023-11-24T05:03:55.550Z,8.87
2023-11-24T05:04:55.446Z,10.56
2023-11-24T05:05:55.445Z,9.43
2023-11-24T05:06:55.456Z,8.76
2023-11-24T05:07:55.423Z,8.91
2023-11-24T05:08:55.400Z,9.32
2023-11-24T05:09:55.417Z,8.63
2023-11-24T05:10:55.388Z,9.14
2023-11-24T05:11:55.395Z,8.45
2023-11-24T05:12:55.373Z,8.19
2023-11-24T05:13:55.396Z,9.93
2023-11-24T05:14:57.641Z,7.79
2023-11-24T05:15:55.424Z,8.18
2023-11-24T05:16:55.372Z,8.37
2023-11-24T05:17:55.470Z,7.43
2023-11-24T05:18:55.358Z,7.90
2023-11-24T05:19:55.333Z,8.41
2023-11-24T05:20:55.285Z,8.15
2023-11-24T05:21:55.355Z,8.53
2023-11-24T05:22:55.286Z,8.91
2023-11-24T05:23:55.371Z,7.70
2023-11-24T05:24:55.306Z,7.90
2023-11-24T05:25:55.265Z,8.56
2023-11-24T05:27:00.289Z,8.59
2023-11-24T05:27:55.287Z,7.79
2023-11-24T05:28:55.244Z,7.86
2023-11-24T05:29:55.232Z,7.68
2023-11-24T05:30:55.251Z,7.94
2023-11-24T05:31:55.252Z,7.71
2023-11-24T05:32:55.279Z,7.26
2023-11-24T05:33:55.277Z,7.18
2023-11-24T05:34:55.202Z,7.81
2023-11-24T05:35:55.173Z,6.89
2023-11-24T05:36:55.207Z,7.29
2023-11-24T05:37:55.168Z,6.18
2023-11-24T05:38:55.135Z,6.53
2023-11-24T05:39:55.219Z,6.77
2023-11-24T05:40:55.119Z,5.75
2023-11-24T05:41:55.120Z,6.85
2023-11-24T05:42:56.734Z,6.76
2023-11-24T05:43:55.115Z,6.50
2023-11-24T05:44:55.085Z,7.85
2023-11-24T05:45:55.184Z,7.17
2023-11-24T05:46:55.154Z,7.34
2023-11-24T05:47:55.084Z,8.32
2023-11-24T05:48:55.136Z,7.70
2023-11-24T05:49:55.051Z,8.96
2023-11-24T05:50:55.056Z,9.88
2023-11-24T05:51:55.161Z,8.21
2023-11-24T05:52:55.169Z,7.03
2023-11-24T05:53:55.212Z,6.60
2023-11-24T05:54:55.397Z,7.08
2023-11-24T05:55:55.300Z,6.90
2023-11-24T05:56:55.371Z,7.70
2023-11-24T05:57:55.438Z,6.31
2023-11-24T05:58:55.459Z,7.09
2023-11-24T05:59:55.521Z,5.94
2023-11-24T06:00:55.641Z,6.27
2023-11-24T06:01:55.668Z,6.87
2023-11-24T06:02:55.664Z,7.50
2023-11-24T06:03:55.806Z,7.29
2023-11-24T06:04:55.996Z,8.08
2023-11-24T06:05:55.805Z,7.31
2023-11-24T06:06:55.868Z,7.61
2023-11-24T06:07:57.474Z,7.35
2023-11-24T06:08:55.904Z,6.54
2023-11-24T06:09:55.932Z,7.08
2023-11-24T06:10:55.919Z,6.02
2023-11-24T06:11:55.889Z,7.90
2023-11-24T06:12:55.883Z,6.82
2023-11-24T06:13:55.878Z,7.42
2023-11-24T06:14:56.009Z,7.28
2023-11-24T06:15:56.048Z,6.42
2023-11-24T06:16:56.078Z,7.06
2023-11-24T06:17:56.116Z,6.78
2023-11-24T06:18:57.727Z,7.51
2023-11-24T06:19:56.329Z,7.62
2023-11-24T06:20:56.396Z,7.44
2023-11-24T06:21:56.317Z,7.68
2023-11-24T06:22:56.309Z,6.85
2023-11-24T06:23:56.328Z,6.33
2023-11-24T06:24:56.323Z,6.13
2023-11-24T06:25:56.268Z,6.69
2023-11-24T06:26:56.260Z,5.69
2023-11-24T06:27:56.445Z,6.83
2023-11-24T06:28:56.391Z,6.12
2023-11-24T06:29:56.473Z,7.07
2023-11-24T06:30:56.510Z,6.88
2023-11-24T06:31:56.521Z,7.53
2023-11-24T06:32:56.592Z,8.68
2023-11-24T06:33:56.708Z,8.34
2023-11-24T06:34:56.676Z,7.65
2023-11-24T06:35:56.790Z,7.92
2023-11-24T06:36:56.862Z,10.42
2023-11-24T06:37:56.917Z,10.30
2023-11-24T06:38:56.920Z,9.95
2023-11-24T06:39:57.054Z,10.34
2023-11-24T06:40:56.963Z,10.79
2023-11-24T06:41:57.015Z,9.45
2023-11-24T06:42:57.132Z,10.58
2023-11-24T06:43:57.200Z,10.36
2023-11-24T06:44:57.178Z,10.63
2023-11-24T06:45:57.305Z,9.55
2023-11-24T06:46:57.281Z,11.05
2023-11-24T06:47:57.348Z,8.95
2023-11-24T06:48:57.423Z,8.81
2023-11-24T06:49:57.446Z,8.73
2023-11-24T06:50:57.467Z,8.66
2023-11-24T06:51:57.535Z,9.41
2023-11-24T06:52:57.580Z,8.61
2023-11-24T06:53:57.604Z,8.58
2023-11-24T06:54:57.732Z,10.20
2023-11-24T06:55:57.720Z,9.61
2023-11-24T06:56:57.763Z,9.28
2023-11-24T06:57:57.852Z,9.07
2023-11-24T06:58:57.887Z,9.04
2023-11-24T06:59:57.926Z,10.78
2023-11-24T07:00:58.055Z,9.88
2023-11-24T07:01:58.042Z,10.23
2023-11-24T07:02:58.225Z,10.93
2023-11-24T07:03:58.215Z,11.63
2023-11-24T07:05:29.211Z,10.59
2023-11-24T07:05:58.198Z,11.29
2023-11-24T07:06:58.234Z,10.95
2023-11-24T07:07:58.147Z,10.67
2023-11-24T07:08:58.167Z,10.74
2023-11-24T07:09:58.186Z,10.80
2023-11-24T07:10:58.135Z,11.26
2023-11-24T07:11:58.144Z,12.36
2023-11-24T07:12:58.111Z,11.63
2023-11-24T07:13:58.158Z,11.66
2023-11-24T07:14:58.114Z,11.07
2023-11-24T07:16:25.220Z,10.20
2023-11-24T07:17:25.100Z,11.49
2023-11-24T07:18:26.643Z,12.42
2023-11-24T07:18:58.309Z,12.79
2023-11-24T07:20:32.578Z,12.48
2023-11-24T07:20:58.037Z,14.21
2023-11-24T07:21:58.107Z,18.17
2023-11-24T07:22:58.780Z,17.73
2023-11-24T07:23:58.022Z,16.91
2023-11-24T07:24:58.042Z,18.13
2023-11-24T07:25:58.034Z,17.66
2023-11-24T07:26:59.038Z,18.29
2023-11-24T07:28:25.034Z,16.42
2023-11-24T07:28:58.760Z,18.11
2023-11-24T07:29:58.995Z,19.06
2023-11-24T07:30:57.987Z,19.35
2023-11-24T07:31:57.925Z,20.12
2023-11-24T07:32:58.052Z,21.07
2023-11-24T07:33:57.961Z,22.03
2023-11-24T07:34:57.998Z,21.17
2023-11-24T07:35:58.559Z,19.93
2023-11-24T07:36:57.954Z,20.06
2023-11-24T07:37:58.125Z,21.04
2023-11-24T07:38:58.374Z,22.64
2023-11-24T07:39:57.874Z,24.11
2023-11-24T07:40:57.918Z,23.02
2023-11-24T07:41:57.973Z,22.79
2023-11-24T07:42:57.973Z,21.95
2023-11-24T07:43:57.859Z,25.41
2023-11-24T07:44:57.830Z,23.18
2023-11-24T07:45:57.907Z,24.17
2023-11-24T07:46:57.834Z,23.54
2023-11-24T07:47:59.785Z,28.42
2023-11-24T07:48:57.829Z,25.96
2023-11-24T07:49:57.920Z,20.02
2023-11-24T07:50:57.787Z,19.84
2023-11-24T07:51:57.795Z,16.77
2023-11-24T07:52:59.099Z,17.42
2023-11-24T07:53:57.744Z,16.61
2023-11-24T07:54:57.795Z,17.70
2023-11-24T07:55:57.782Z,17.34
2023-11-24T07:56:58.801Z,18.44
2023-11-24T07:57:57.998Z,17.36
2023-11-24T07:58:57.694Z,18.31
2023-11-24T07:59:57.703Z,18.16
2023-11-24T08:00:57.738Z,17.77
2023-11-24T08:01:57.702Z,18.03
2023-11-24T08:02:57.701Z,18.63
2023-11-24T08:03:57.681Z,18.77
2023-11-24T08:04:57.624Z,19.02
2023-11-24T08:05:57.630Z,19.99
2023-11-24T08:06:57.687Z,20.52
2023-11-24T08:07:57.749Z,21.00
2023-11-24T08:08:57.745Z,20.60
2023-11-24T08:09:57.799Z,21.30
2023-11-24T08:10:57.906Z,21.40
2023-11-24T08:11:57.942Z,21.24
2023-11-24T08:12:57.967Z,23.96
2023-11-24T08:13:58.104Z,22.34
2023-11-24T08:14:58.069Z,22.71
2023-11-24T08:15:58.150Z,24.36
2023-11-24T08:16:58.199Z,23.22
2023-11-24T08:17:58.337Z,23.45
2023-11-24T08:18:58.346Z,25.34
2023-11-24T08:19:58.279Z,23.73
2023-11-24T08:20:58.368Z,22.41
2023-11-24T08:21:58.442Z,23.68
2023-11-24T08:22:58.492Z,23.21
2023-11-24T08:23:58.482Z,24.25
2023-11-24T08:24:58.560Z,23.78
2023-11-24T08:25:58.597Z,23.30
2023-11-24T08:26:58.650Z,22.56
2023-11-24T08:27:58.732Z,23.04
2023-11-24T08:28:58.720Z,23.44
2023-11-24T08:29:58.845Z,22.05
2023-11-24T08:30:58.932Z,23.31
2023-11-24T08:31:58.996Z,23.82
2023-11-24T08:32:59.009Z,23.64
2023-11-24T08:33:59.022Z,25.45
2023-11-24T08:34:59.115Z,22.88
2023-11-24T08:35:59.122Z,22.12
2023-11-24T08:36:59.244Z,22.19
2023-11-24T08:37:59.218Z,22.02
2023-11-24T08:38:59.232Z,23.80
2023-11-24T08:39:59.302Z,24.42
2023-11-24T08:40:59.355Z,24.22
2023-11-24T08:41:59.440Z,28.60
2023-11-24T08:42:59.503Z,28.83
2023-11-24T08:43:59.478Z,27.59
2023-11-24T08:44:59.553Z,25.75
2023-11-24T08:45:59.690Z,26.78
2023-11-24T08:46:59.751Z,24.04
2023-11-24T08:47:59.746Z,24.13
2023-11-24T08:48:59.783Z,25.20
2023-11-24T08:50:00.768Z,24.83
2023-11-24T08:50:59.790Z,25.52
2023-11-24T08:51:59.777Z,24.90
2023-11-24T08:52:59.794Z,26.55
2023-11-24T08:53:59.801Z,26.41
2023-11-24T08:54:59.918Z,25.75
2023-11-24T08:55:59.926Z,27.65
2023-11-24T08:56:59.994Z,30.51
2023-11-24T08:58:00.077Z,29.43
2023-11-24T08:59:00.097Z,30.92
2023-11-24T09:00:00.129Z,29.33
2023-11-24T09:01:00.254Z,34.18
2023-11-24T09:02:00.344Z,30.69
2023-11-24T09:03:00.348Z,27.32
2023-11-24T09:04:00.499Z,25.63
2023-11-24T09:05:00.489Z,26.63
2023-11-24T09:06:00.419Z,25.14
2023-11-24T09:07:00.486Z,24.32
2023-11-24T09:08:00.511Z,25.62
2023-11-24T09:09:00.570Z,24.60
2023-11-24T09:10:00.742Z,23.34
2023-11-24T09:11:00.681Z,25.16
2023-11-24T09:12:00.719Z,27.01
2023-11-24T09:13:00.848Z,27.89
2023-11-24T09:14:00.810Z,27.70
2023-11-24T09:15:00.874Z,28.91
2023-11-24T09:16:00.965Z,27.42
2023-11-24T09:17:00.988Z,28.34
2023-11-24T09:18:01.087Z,27.02
2023-11-24T09:19:01.432Z,27.75
2023-11-24T09:20:01.133Z,26.35
2023-11-24T09:21:01.166Z,27.44
2023-11-24T09:22:01.293Z,26.27
2023-11-24T09:23:01.268Z,26.72
2023-11-24T09:24:01.572Z,23.53
2023-11-24T09:25:01.409Z,25.43
2023-11-24T09:26:01.438Z,25.81
2023-11-24T09:27:01.623Z,25.38
2023-11-24T09:28:01.708Z,26.85
2023-11-24T09:29:01.593Z,26.44
2023-11-24T09:33:50.404Z,25.86
2023-11-24T09:34:21.726Z,25.06
2023-11-24T09:35:21.862Z,25.15
2023-11-24T09:36:21.068Z,25.81
2023-11-24T09:37:27.498Z,25.75
2023-11-24T09:38:20.975Z,23.16
2023-11-24T09:39:20.907Z,23.02
2023-11-24T09:40:20.917Z,23.23
2023-11-24T09:41:20.912Z,22.55
2023-11-24T09:42:22.510Z,20.05
2023-11-24T09:43:20.925Z,20.38
2023-11-24T09:44:20.869Z,19.39
2023-11-24T09:45:20.964Z,19.50
2023-11-24T09:46:20.980Z,19.90
2023-11-24T09:47:20.866Z,18.25
2023-11-24T09:48:22.033Z,21.10
2023-11-24T09:49:20.834Z,23.21
2023-11-24T09:50:20.816Z,21.66
2023-11-24T09:51:20.839Z,21.52
2023-11-24T09:52:20.809Z,21.76
2023-11-24T09:53:20.797Z,22.22
2023-11-24T09:54:20.914Z,21.80
2023-11-24T09:55:20.786Z,21.20
2023-11-24T09:56:20.755Z,21.33
2023-11-24T09:57:20.764Z,22.20
2023-11-24T09:58:20.782Z,20.61
2023-11-24T09:59:20.843Z,21.01
2023-11-24T10:00:20.854Z,18.75
2023-11-24T10:01:20.916Z,19.18
2023-11-24T10:02:21.188Z,20.55
2023-11-24T10:03:21.022Z,17.14
2023-11-24T10:04:21.164Z,17.51
2023-11-24T10:05:21.118Z,16.01
2023-11-24T10:06:21.146Z,15.40
2023-11-24T10:07:21.211Z,15.85
2023-11-24T10:08:21.324Z,17.79
2023-11-24T10:09:21.338Z,21.32
2023-11-24T10:10:21.345Z,21.77
2023-11-24T10:11:21.418Z,22.20
2023-11-24T10:12:21.452Z,20.92
2023-11-24T10:13:21.506Z,21.32
2023-11-24T10:14:21.564Z,23.00
2023-11-24T10:15:21.709Z,21.82
2023-11-24T10:16:21.691Z,22.16
2023-11-24T10:17:21.761Z,22.27
2023-11-24T10:18:21.774Z,23.08
2023-11-24T10:19:23.219Z,21.61
2023-11-24T10:20:21.803Z,22.07
2023-11-24T10:21:29.921Z,21.78
2023-11-24T10:22:22.791Z,20.69
2023-11-24T10:23:21.784Z,19.78
2023-11-24T10:24:21.750Z,19.95
2023-11-24T10:25:21.824Z,20.69
2023-11-24T10:26:21.757Z,21.08
2023-11-24T10:27:21.750Z,21.52
2023-11-24T10:28:21.792Z,20.78
2023-11-24T10:29:21.718Z,20.70
2023-11-24T10:30:21.711Z,20.71
2023-11-24T10:31:22.048Z,22.30
2023-11-24T10:32:21.722Z,21.43
2023-11-24T10:33:34.944Z,20.93
2023-11-24T10:34:22.738Z,19.88
2023-11-24T10:35:21.713Z,19.70
2023-11-24T10:36:21.648Z,29.85
2023-11-24T10:37:21.683Z,22.26
2023-11-24T10:38:21.639Z,19.69
2023-11-24T10:39:21.647Z,19.18
2023-11-24T10:40:21.972Z,18.27
2023-11-24T10:41:21.643Z,19.85
2023-11-24T10:42:21.650Z,20.40
2023-11-24T10:43:21.633Z,21.88
2023-11-24T10:44:21.582Z,19.71
2023-11-24T10:45:21.598Z,19.43
2023-11-24T10:46:22.011Z,19.02
2023-11-24T10:47:21.642Z,18.62
2023-11-24T10:48:21.584Z,18.54
2023-11-24T10:49:21.756Z,19.41
2023-11-24T10:50:21.530Z,18.32
2023-11-24T10:52:21.750Z,16.57
2023-11-24T10:53:21.538Z,13.90
2023-11-24T10:54:21.548Z,8.82
2023-11-24T10:55:51.341Z,4.86
2023-11-24T10:57:51.914Z,5.14
2023-11-24T10:59:01.946Z,3.68
2023-11-24T10:59:25.777Z,2.60
2023-11-24T11:00:25.792Z,2.71
2023-11-24T11:01:25.880Z,3.08
2023-11-24T11:02:25.774Z,2.85
2023-11-24T11:03:25.733Z,3.53
2023-11-24T11:04:25.772Z,2.46
2023-11-24T11:05:25.710Z,2.53
2023-11-24T11:06:25.703Z,2.29
2023-11-24T11:07:25.679Z,2.55
2023-11-24T11:08:25.663Z,2.44
2023-11-24T11:09:25.689Z,1.27
2023-11-24T11:10:25.693Z,1.20
2023-11-24T11:11:25.640Z,1.17
2023-11-24T11:12:25.665Z,1.58
2023-11-24T11:13:25.616Z,1.17
2023-11-24T11:14:25.611Z,1.10
2023-11-24T11:15:25.613Z,1.20
2023-11-24T11:16:25.687Z,1.04
2023-11-24T11:17:25.587Z,1.28
2023-11-24T11:18:25.592Z,1.06
2023-11-24T11:19:25.599Z,1.08
2023-11-24T11:20:25.552Z,1.15
2023-11-24T11:21:25.572Z,0.77
2023-11-24T11:22:25.554Z,0.59
2023-11-24T11:23:25.542Z,0.69
2023-11-24T11:24:25.609Z,1.13
2023-11-24T11:25:25.616Z,0.90
2023-11-24T11:26:25.510Z,1.08
2023-11-24T11:27:25.542Z,1.27
2023-11-24T11:28:25.536Z,1.17
2023-11-24T11:29:25.468Z,1.04
2023-11-24T11:30:25.481Z,1.05
2023-11-24T11:31:26.304Z,0.94
2023-11-24T11:32:26.991Z,0.81
2023-11-24T11:33:25.495Z,0.61
2023-11-24T11:34:25.421Z,0.82
2023-11-24T11:35:25.463Z,0.67
2023-11-24T11:36:25.422Z,0.75
2023-11-24T11:37:25.473Z,0.51
2023-11-24T11:38:27.217Z,0.65
2023-11-24T11:39:25.392Z,0.70
2023-11-24T11:40:25.446Z,1.11
2023-11-24T11:41:25.441Z,1.16
2023-11-24T11:42:25.363Z,1.16
2023-11-24T11:43:25.399Z,1.01
2023-11-24T11:44:27.535Z,0.62
2023-11-24T11:45:25.424Z,0.74
2023-11-24T11:46:25.479Z,0.75
2023-11-24T11:47:25.639Z,0.94
2023-11-24T11:48:25.399Z,1.08
2023-11-24T11:49:25.411Z,0.99
2023-11-24T11:50:25.540Z,1.12
2023-11-24T11:51:25.640Z,1.86
2023-11-24T11:52:25.977Z,1.17
2023-11-24T11:53:25.601Z,1.05
2023-11-24T11:54:25.578Z,1.60
2023-11-24T11:55:25.744Z,1.08
2023-11-24T11:56:25.509Z,0.74
2023-11-24T11:57:25.508Z,1.29
2023-11-24T11:58:25.528Z,0.61
2023-11-24T11:59:25.583Z,1.01
2023-11-24T12:00:25.610Z,1.88
2023-11-24T12:01:25.761Z,1.64
2023-11-24T12:02:35.018Z,0.81
2023-11-24T12:24:24.778Z,1.25
2023-11-24T13:15:59.410Z,1.78
2023-11-24T13:16:29.209Z,1.79
2023-11-24T13:17:28.804Z,1.36
2023-11-24T13:24:24.893Z,1.78
2023-11-24T13:24:50.585Z,2.41
2023-11-24T13:25:50.983Z,1.02
2023-11-24T13:26:51.206Z,0.68
2023-11-24T13:27:50.250Z,1.18
2023-11-24T13:28:51.577Z,0.93
2023-11-24T13:29:49.930Z,0.97
2023-11-24T13:30:50.564Z,1.17
2023-11-24T13:31:50.272Z,1.36
2023-11-24T13:32:50.125Z,1.33
2023-11-24T13:33:50.301Z,1.51
2023-11-24T13:34:50.938Z,1.15
2023-11-24T13:35:50.003Z,1.07
2023-11-24T13:36:50.286Z,1.31
2023-11-24T13:37:50.481Z,1.40
2023-11-24T13:38:52.299Z,1.24
2023-11-24T13:41:27.014Z,1.14
2023-11-24T13:41:54.854Z,1.09
2023-11-24T13:42:54.843Z,1.96
2023-11-24T13:43:55.920Z,2.79
2023-11-24T13:57:19.475Z,2.48
2023-11-24T13:57:49.612Z,1.66
2023-11-24T13:58:48.514Z,1.63
2023-11-24T13:59:48.391Z,1.93
2023-11-24T14:00:48.493Z,3.02
2023-11-24T14:01:48.564Z,3.20
2023-11-24T14:02:48.751Z,2.56
2023-11-24T14:03:49.135Z,2.46
2023-11-24T14:04:50.500Z,2.47
2023-11-24T14:05:48.290Z,2.60
2023-11-24T14:06:48.659Z,2.32
2023-11-24T14:07:48.546Z,2.30
2023-11-24T14:08:48.599Z,2.05
2023-11-24T14:09:49.870Z,1.88
2023-11-24T14:10:49.115Z,2.64
2023-11-24T14:11:48.534Z,3.14
2023-11-24T14:12:49.231Z,3.59
2023-11-24T14:13:48.558Z,5.91
2023-11-24T14:14:49.009Z,7.68
2023-11-24T14:15:48.589Z,9.40
2023-11-24T14:16:49.668Z,6.86
2023-11-24T14:17:49.168Z,1.65
2023-11-24T14:18:48.444Z,0.68
2023-11-24T14:19:49.019Z,0.43
2023-11-24T14:20:48.932Z,0.37
2023-11-24T14:21:49.229Z,0.39
2023-11-24T14:22:51.605Z,0.34
2023-11-24T14:23:49.395Z,0.24
2023-11-24T14:24:48.282Z,0.21
2023-11-24T14:25:48.214Z,0.25
2023-11-24T14:26:49.015Z,0.23
2023-11-24T14:27:48.403Z,0.17
2023-11-24T14:28:48.736Z,0.20
2023-11-24T14:42:11.989Z,3.16
2023-11-24T14:47:58.202Z,5.10
2023-11-24T14:48:21.558Z,4.26
2023-11-24T14:49:21.517Z,4.45
2023-11-24T14:50:21.723Z,4.80
2023-11-24T14:51:40.338Z,3.65
2023-11-24T14:52:24.709Z,3.30
2023-11-24T14:53:21.342Z,2.33
2023-11-24T14:54:23.212Z,2.43
2023-11-24T14:55:53.577Z,3.84
2023-11-24T14:56:21.268Z,5.12